Time;durP1;ratioP1;P1;durP2;ratioP2;P2;SDS_P1;SDS_P2;PMS_P1;PMS_P2;Temp;Humidity;BMP_temperature;BMP_pressure;BME280_temperature;BME280_humidity;BME280_pressure;Samples;Min_cycle;Max_cycle;Signal;HPM_P1;HPM_P2
2021/09/05 00:01:54;;;;;;;20.40;13.60;;;15.30;99.90;;;;;;5069345;28;20467;-56
2021/09/05 00:04:20;;;;;;;24.27;15.00;;;15.30;99.90;;;;;;5069303;28;20380;-58
2021/09/05 00:06:45;;;;;;;20.15;13.90;;;15.50;99.90;;;;;;5069156;28;20453;-58
2021/09/05 00:09:11;;;;;;;21.20;13.90;;;15.50;99.90;;;;;;5069605;28;20449;-58
2021/09/05 00:11:36;;;;;;;22.13;14.07;;;15.50;99.90;;;;;;5068732;28;20368;-57
2021/09/05 00:14:03;;;;;;;20.10;13.30;;;15.40;99.90;;;;;;5069365;28;20840;-58
2021/09/05 00:16:30;;;;;;;19.60;13.95;;;15.40;99.90;;;;;;5068431;28;20771;-57
2021/09/05 00:18:57;;;;;;;19.35;14.27;;;15.40;99.90;;;;;;5069268;28;20388;-58
2021/09/05 00:21:23;;;;;;;24.02;14.75;;;15.40;99.90;;;;;;5068395;28;20375;-58
2021/09/05 00:23:48;;;;;;;22.20;15.20;;;15.30;99.90;;;;;;5069048;28;20380;-57
2021/09/05 00:26:14;;;;;;;22.73;14.40;;;15.30;99.90;;;;;;5069083;28;20942;-57
2021/09/05 00:28:40;;;;;;;24.17;13.93;;;15.40;99.90;;;;;;5069680;28;20375;-58
2021/09/05 00:31:05;;;;;;;21.85;14.15;;;15.40;99.90;;;;;;5069599;28;20372;-57
2021/09/05 00:33:32;;;;;;;20.30;13.30;;;15.30;99.90;;;;;;5068696;28;20376;-57
2021/09/05 00:35:58;;;;;;;18.50;12.48;;;15.20;99.90;;;;;;5069851;28;20380;-57
2021/09/05 00:38:24;;;;;;;17.57;12.70;;;15.10;99.90;;;;;;5068530;28;20376;-57
2021/09/05 00:40:49;;;;;;;21.42;12.82;;;15.00;99.90;;;;;;5069365;28;20470;-58
2021/09/05 00:43:15;;;;;;;21.92;13.57;;;15.00;99.90;;;;;;5068864;28;20380;-58
2021/09/05 00:45:41;;;;;;;21.20;14.43;;;15.00;99.90;;;;;;5067904;28;20916;-58
2021/09/05 00:48:06;;;;;;;23.80;14.77;;;15.00;99.90;;;;;;5068643;28;20418;-58
2021/09/05 00:50:33;;;;;;;23.38;14.40;;;15.10;99.90;;;;;;5066762;28;20945;-58
2021/09/05 00:52:59;;;;;;;24.80;14.90;;;15.20;99.90;;;;;;5069008;28;20466;-57
2021/09/05 00:55:25;;;;;;;23.35;14.82;;;15.10;99.90;;;;;;5068083;28;20445;-57
2021/09/05 00:57:51;;;;;;;21.10;14.47;;;15.00;99.90;;;;;;5070574;28;20386;-58
2021/09/05 01:00:19;;;;;;;22.23;14.60;;;15.00;99.90;;;;;;5072410;28;20445;-57
2021/09/05 01:02:46;;;;;;;22.23;15.23;;;14.90;99.90;;;;;;5071907;28;20391;-57
2021/09/05 01:05:11;;;;;;;22.10;14.90;;;15.00;99.90;;;;;;5072469;28;20433;-57
2021/09/05 01:07:37;;;;;;;23.10;15.10;;;14.90;99.90;;;;;;5071159;28;20482;-57
2021/09/05 01:10:04;;;;;;;21.27;14.88;;;14.80;99.90;;;;;;5072306;28;20725;-57
2021/09/05 01:12:29;;;;;;;19.95;13.35;;;14.80;99.90;;;;;;5071214;28;20413;-58
2021/09/05 01:14:55;;;;;;;21.77;13.50;;;14.70;99.90;;;;;;5071831;28;20478;-58
2021/09/05 01:17:21;;;;;;;23.27;13.32;;;14.60;99.90;;;;;;5071249;28;20415;-58
2021/09/05 01:19:47;;;;;;;20.60;14.30;;;14.60;99.90;;;;;;5071479;28;20390;-58
2021/09/05 01:22:13;;;;;;;20.83;13.95;;;14.60;99.90;;;;;;5072100;28;20380;-59
2021/09/05 01:24:38;;;;;;;22.97;15.20;;;14.60;99.90;;;;;;5071229;28;20521;-58
2021/09/05 01:27:04;;;;;;;20.45;15.13;;;14.50;99.90;;;;;;5071623;28;20430;-59
2021/09/05 01:29:30;;;;;;;21.53;15.13;;;14.60;99.90;;;;;;5071038;28;20392;-58
2021/09/05 01:31:56;;;;;;;25.73;16.10;;;14.60;99.90;;;;;;5071725;28;20831;-57
2021/09/05 01:34:24;;;;;;;26.88;15.55;;;14.60;99.90;;;;;;5070931;28;20386;-58
2021/09/05 01:36:52;;;;;;;22.25;15.60;;;14.70;99.90;;;;;;5071489;28;20884;-57
2021/09/05 01:39:20;;;;;;;23.50;17.00;;;14.70;99.90;;;;;;5072013;28;20383;-58
2021/09/05 01:41:46;;;;;;;24.90;15.20;;;14.80;99.90;;;;;;5071241;28;20404;-58
2021/09/05 01:44:18;;;;;;;23.40;15.55;;;14.80;99.90;;;;;;5071392;28;20391;-57
2021/09/05 01:46:44;;;;;;;26.55;15.90;;;14.70;99.90;;;;;;5071055;28;20426;-58
2021/09/05 01:49:09;;;;;;;21.53;14.37;;;14.70;99.90;;;;;;5071793;28;20388;-58
2021/09/05 01:51:35;;;;;;;21.90;14.52;;;14.60;99.90;;;;;;5070617;28;21145;-57
2021/09/05 01:54:02;;;;;;;24.15;15.40;;;14.40;99.90;;;;;;5071324;28;20445;-58
2021/09/05 01:56:32;;;;;;;23.00;15.82;;;14.30;99.90;;;;;;5070187;28;20389;-58
2021/09/05 01:58:59;;;;;;;21.23;14.82;;;14.30;99.90;;;;;;5071022;28;20416;-58
2021/09/05 02:01:25;;;;;;;24.98;14.95;;;14.20;99.90;;;;;;5070704;28;20383;-57
2021/09/05 02:03:51;;;;;;;22.42;15.23;;;14.30;99.90;;;;;;5071041;28;20376;-58
2021/09/05 02:06:17;;;;;;;21.77;15.00;;;14.30;99.90;;;;;;5070651;28;20474;-58
2021/09/05 02:08:42;;;;;;;21.42;15.10;;;14.40;99.90;;;;;;5069889;28;20904;-57
2021/09/05 02:11:08;;;;;;;26.50;15.00;;;14.50;99.90;;;;;;5070963;28;20376;-57
2021/09/05 02:13:34;;;;;;;24.33;16.37;;;14.50;99.90;;;;;;5070229;28;20376;-58
2021/09/05 02:16:00;;;;;;;22.80;15.13;;;14.40;99.90;;;;;;5070764;28;20813;-57
2021/09/05 02:18:26;;;;;;;22.38;14.35;;;14.40;99.90;;;;;;5068697;28;20415;-57
2021/09/05 02:20:52;;;;;;;23.23;15.10;;;14.40;99.90;;;;;;5071122;28;20832;-58
2021/09/05 02:23:18;;;;;;;21.53;15.20;;;14.30;99.90;;;;;;5070971;28;20379;-57
2021/09/05 02:25:43;;;;;;;24.30;15.07;;;14.30;99.90;;;;;;5070212;28;20897;-57
2021/09/05 02:28:09;;;;;;;21.30;14.30;;;14.10;99.90;;;;;;5070129;28;20448;-57
2021/09/05 02:30:35;;;;;;;21.05;14.50;;;14.00;99.90;;;;;;5068564;28;20485;-57
2021/09/05 02:33:02;;;;;;;24.40;15.17;;;14.00;99.90;;;;;;5070458;28;20418;-57
2021/09/05 02:35:27;;;;;;;24.58;15.30;;;13.90;99.90;;;;;;5069735;28;20409;-56
2021/09/05 02:37:53;;;;;;;23.65;15.90;;;13.90;99.90;;;;;;5070735;28;20458;-56
2021/09/05 02:40:19;;;;;;;23.85;16.48;;;13.90;99.90;;;;;;5070794;28;20459;-58
2021/09/05 02:42:44;;;;;;;24.60;16.20;;;14.00;99.90;;;;;;5070017;28;20387;-57
2021/09/05 02:45:10;;;;;;;23.20;15.82;;;13.90;99.90;;;;;;5070611;28;20426;-58
2021/09/05 02:47:36;;;;;;;22.07;15.10;;;14.00;99.90;;;;;;5070161;28;20391;-57
2021/09/05 02:50:03;;;;;;;23.38;15.52;;;14.00;99.90;;;;;;5070490;28;20450;-57
2021/09/05 02:52:28;;;;;;;22.48;15.27;;;14.10;99.90;;;;;;5069563;28;20420;-58
2021/09/05 02:54:54;;;;;;;26.80;15.83;;;14.10;99.90;;;;;;5070004;28;20473;-57
2021/09/05 02:57:20;;;;;;;21.42;13.88;;;14.20;99.90;;;;;;5070067;28;20693;-58
2021/09/05 02:59:45;;;;;;;19.70;14.80;;;14.10;99.90;;;;;;5069789;28;20798;-57
2021/09/05 03:02:11;;;;;;;23.67;14.80;;;14.10;99.90;;;;;;5069970;28;20852;-58
2021/09/05 03:04:36;;;;;;;23.90;15.52;;;14.10;99.90;;;;;;5069464;28;20438;-57
2021/09/05 03:07:02;;;;;;;24.17;16.53;;;14.00;99.90;;;;;;5069952;28;20416;-57
2021/09/05 03:09:28;;;;;;;24.63;15.40;;;14.00;99.90;;;;;;5069119;28;20437;-57
2021/09/05 03:11:54;;;;;;;22.92;14.98;;;13.90;99.90;;;;;;5068314;28;20388;-58
2021/09/05 03:14:19;;;;;;;27.60;15.40;;;13.90;99.90;;;;;;5070044;28;20778;-58
2021/09/05 03:16:45;;;;;;;23.55;15.50;;;13.90;99.90;;;;;;5068699;28;20400;-57
2021/09/05 03:19:11;;;;;;;23.45;15.30;;;13.90;99.90;;;;;;5069503;28;20841;-58
2021/09/05 03:21:38;;;;;;;23.60;15.38;;;13.90;99.90;;;;;;5068977;28;20390;-58
2021/09/05 03:24:04;;;;;;;21.67;15.23;;;13.90;99.90;;;;;;5069998;28;20732;-57
2021/09/05 03:26:32;;;;;;;25.80;15.27;;;13.90;99.90;;;;;;5068975;28;20464;-58
2021/09/05 03:28:57;;;;;;;23.17;14.40;;;14.00;99.90;;;;;;5069633;28;20829;-57
2021/09/05 03:31:23;;;;;;;22.92;15.35;;;14.20;99.90;;;;;;5069098;28;20470;-57
2021/09/05 03:33:48;;;;;;;20.87;15.23;;;14.10;99.90;;;;;;5068805;28;20473;-57
2021/09/05 03:36:14;;;;;;;24.00;15.57;;;14.10;99.90;;;;;;5069393;28;20414;-57
2021/09/05 03:38:40;;;;;;;21.83;15.00;;;14.10;99.90;;;;;;5068733;28;20376;-57
2021/09/05 03:41:05;;;;;;;23.23;14.60;;;14.10;99.90;;;;;;5069547;28;20496;-57
2021/09/05 03:43:31;;;;;;;21.73;14.83;;;14.00;99.90;;;;;;5068586;28;20382;-57
2021/09/05 03:45:56;;;;;;;24.02;15.50;;;14.00;99.90;;;;;;5069031;28;20936;-58
2021/09/05 03:48:22;;;;;;;21.17;14.50;;;13.90;99.90;;;;;;5069590;28;20388;-57
2021/09/05 03:50:48;;;;;;;22.50;14.00;;;13.80;99.90;;;;;;5068425;28;20461;-58
2021/09/05 03:53:14;;;;;;;22.52;14.07;;;13.60;99.90;;;;;;5069465;28;20683;-58
2021/09/05 03:55:39;;;;;;;25.87;14.60;;;13.60;99.90;;;;;;5068642;28;20391;-58
2021/09/05 03:58:07;;;;;;;23.88;15.20;;;13.60;99.90;;;;;;5068987;28;20412;-58
2021/09/05 04:00:33;;;;;;;23.60;13.90;;;13.60;99.90;;;;;;5068608;28;20425;-59
2021/09/05 04:02:59;;;;;;;21.92;13.82;;;13.60;99.90;;;;;;5069217;28;20384;-58
2021/09/05 04:05:25;;;;;;;21.20;14.70;;;13.60;99.90;;;;;;5068602;28;20414;-58
2021/09/05 04:10:29;;;;;;;22.65;14.80;;;13.70;99.90;;;;;;5068477;28;20747;-57
2021/09/05 04:12:55;;;;;;;21.52;14.70;;;13.80;99.90;;;;;;5069239;28;20375;-58
2021/09/05 04:15:20;;;;;;;21.05;14.20;;;13.80;99.90;;;;;;5069140;28;20379;-57
2021/09/05 04:17:46;;;;;;;21.50;13.60;;;13.70;99.90;;;;;;5068075;28;20461;-58
2021/09/05 04:20:12;;;;;;;20.92;14.07;;;13.80;99.90;;;;;;5069040;28;20458;-58
2021/09/05 04:22:37;;;;;;;21.27;14.38;;;13.80;99.90;;;;;;5068509;28;20415;-57
2021/09/05 04:25:04;;;;;;;21.10;13.50;;;13.80;99.90;;;;;;5069072;28;20442;-58
2021/09/05 04:27:30;;;;;;;20.48;13.63;;;13.80;99.90;;;;;;5068404;28;20441;-58
2021/09/05 04:29:56;;;;;;;19.60;13.70;;;13.80;99.90;;;;;;5069163;28;20380;-58
2021/09/05 04:32:22;;;;;;;22.52;14.68;;;13.80;99.90;;;;;;5070493;28;20394;-58
2021/09/05 04:34:48;;;;;;;22.43;14.63;;;13.80;99.90;;;;;;5072241;28;20446;-57
2021/09/05 04:37:18;;;;;;;21.40;14.10;;;13.80;99.90;;;;;;5072815;28;20454;-56
2021/09/05 04:39:44;;;;;;;23.42;15.75;;;13.80;99.90;;;;;;5071887;28;20908;-57
2021/09/05 04:42:10;;;;;;;23.50;14.88;;;13.80;99.90;;;;;;5073116;28;20868;-58
2021/09/05 04:44:36;;;;;;;23.48;15.10;;;13.90;99.90;;;;;;5072109;28;20372;-58
2021/09/05 04:47:03;;;;;;;22.45;15.13;;;13.80;99.90;;;;;;5073013;28;20419;-58
2021/09/05 04:49:29;;;;;;;22.50;14.85;;;13.70;99.90;;;;;;5071995;28;20403;-58
2021/09/05 04:51:54;;;;;;;21.43;14.50;;;13.70;99.90;;;;;;5072594;28;21039;-58
2021/09/05 04:54:20;;;;;;;22.23;14.43;;;13.60;99.90;;;;;;5071290;28;20430;-58
2021/09/05 04:56:46;;;;;;;22.05;14.73;;;13.40;99.90;;;;;;5071598;28;20384;-58
2021/09/05 04:59:11;;;;;;;21.80;14.38;;;13.40;99.90;;;;;;5072674;28;20473;-58
2021/09/05 05:01:37;;;;;;;21.42;14.13;;;13.40;99.90;;;;;;5071686;28;20470;-58
2021/09/05 05:04:03;;;;;;;21.77;14.80;;;13.40;99.90;;;;;;5072307;28;20577;-58
2021/09/05 05:06:28;;;;;;;22.90;14.35;;;13.40;99.90;;;;;;5071132;28;20469;-58
2021/09/05 05:08:54;;;;;;;21.20;14.10;;;13.50;99.90;;;;;;5072100;28;20419;-58
2021/09/05 05:11:20;;;;;;;20.07;13.63;;;13.70;99.90;;;;;;5072131;28;20899;-58
2021/09/05 05:13:46;;;;;;;19.80;13.63;;;13.80;99.90;;;;;;5071591;28;20529;-58
2021/09/05 05:16:12;;;;;;;20.20;13.57;;;14.00;99.90;;;;;;5071991;28;20387;-55
2021/09/05 05:18:38;;;;;;;19.27;13.33;;;14.10;99.90;;;;;;5071640;28;20788;-57
2021/09/05 05:21:03;;;;;;;21.95;14.45;;;14.30;99.90;;;;;;5072177;28;20463;-57
2021/09/05 05:23:29;;;;;;;21.83;14.23;;;14.40;99.90;;;;;;5071061;28;20687;-56
2021/09/05 05:25:58;;;;;;;20.45;14.13;;;14.40;99.90;;;;;;5072417;28;20411;-57
2021/09/05 05:28:24;;;;;;;21.15;13.10;;;14.40;99.90;;;;;;5072068;28;20897;-57
2021/09/05 05:30:49;;;;;;;19.83;13.60;;;14.40;99.90;;;;;;5071840;28;20482;-57
2021/09/05 05:33:15;;;;;;;23.95;13.88;;;14.60;99.90;;;;;;5072219;28;20936;-57
2021/09/05 05:35:41;;;;;;;20.93;13.30;;;14.80;99.90;;;;;;5071797;28;20756;-56
2021/09/05 05:38:06;;;;;;;21.45;13.57;;;14.80;99.90;;;;;;5070808;28;20379;-56
2021/09/05 05:40:35;;;;;;;21.13;13.32;;;14.90;99.90;;;;;;5071534;28;20383;-57
2021/09/05 05:43:02;;;;;;;22.38;13.45;;;14.90;99.90;;;;;;5071314;28;20845;-57
2021/09/05 05:45:28;;;;;;;21.08;13.75;;;14.80;99.90;;;;;;5070999;28;21023;-57
2021/09/05 05:47:54;;;;;;;19.77;12.30;;;14.90;99.90;;;;;;5071217;28;20423;-56
2021/09/05 05:50:19;;;;;;;19.80;13.35;;;15.00;99.90;;;;;;5062882;28;20415;-56
2021/09/05 05:52:45;;;;;;;19.73;13.57;;;15.10;99.90;;;;;;5070782;28;20795;-58
2021/09/05 05:55:11;;;;;;;19.50;12.90;;;15.20;99.90;;;;;;5072034;28;20430;-57
2021/09/05 05:57:37;;;;;;;19.52;12.90;;;15.30;99.90;;;;;;5070643;28;20403;-56
2021/09/05 06:00:05;;;;;;;19.38;12.77;;;15.40;99.90;;;;;;5071100;28;20869;-58
2021/09/05 06:02:31;;;;;;;18.57;12.47;;;15.60;99.90;;;;;;5070504;28;20411;-57
2021/09/05 06:04:56;;;;;;;16.80;11.88;;;15.90;99.90;;;;;;5070114;28;20778;-57
2021/09/05 06:07:22;;;;;;;17.20;11.63;;;16.80;99.90;;;;;;5071102;28;20888;-57
2021/09/05 06:09:48;;;;;;;16.33;10.50;;;18.30;99.90;;;;;;5068353;28;20869;-58
2021/09/05 06:12:13;;;;;;;15.67;9.93;;;20.30;99.90;;;;;;5070691;28;20379;-57
2021/09/05 06:14:39;;;;;;;14.90;10.20;;;22.10;99.90;;;;;;5070102;28;20376;-58
2021/09/05 06:17:05;;;;;;;18.00;10.40;;;23.70;99.90;;;;;;5070161;28;20469;-58
2021/09/05 06:19:30;;;;;;;13.75;10.40;;;24.80;99.90;;;;;;5070026;28;20391;-58
2021/09/05 06:21:56;;;;;;;14.50;10.20;;;25.10;99.90;;;;;;5068886;28;20391;-59
2021/09/05 06:24:22;;;;;;;14.18;10.68;;;25.80;99.90;;;;;;5070541;28;20388;-57
2021/09/05 06:26:48;;;;;;;15.10;10.70;;;26.40;99.90;;;;;;5069417;28;21040;-57
2021/09/05 06:29:14;;;;;;;16.50;11.10;;;27.00;99.10;;;;;;5070238;28;20391;-58
2021/09/05 06:31:39;;;;;;;13.93;10.13;;;26.90;97.80;;;;;;5069277;28;20738;-58
2021/09/05 06:34:05;;;;;;;15.33;10.07;;;26.80;97.60;;;;;;5070315;28;20398;-57
2021/09/05 06:36:31;;;;;;;15.32;10.65;;;26.90;96.90;;;;;;5069099;28;20395;-57
2021/09/05 06:38:57;;;;;;;14.57;11.02;;;26.80;96.80;;;;;;5070216;28;20396;-57
2021/09/05 06:41:22;;;;;;;16.15;11.85;;;26.80;97.00;;;;;;5069530;28;20386;-57
2021/09/05 06:43:48;;;;;;;16.70;12.67;;;27.40;96.20;;;;;;5068723;28;20477;-57
2021/09/05 06:46:14;;;;;;;15.53;12.43;;;27.70;95.00;;;;;;5069784;28;20423;-57
2021/09/05 06:48:44;;;;;;;13.73;11.55;;;28.00;93.50;;;;;;5067927;28;20873;-57
2021/09/05 06:51:16;;;;;;;14.98;10.50;;;28.60;92.70;;;;;;5069984;28;20375;-58
2021/09/05 06:53:42;;;;;;;14.05;11.25;;;28.80;91.80;;;;;;5069096;28;20841;-57
2021/09/05 06:56:09;;;;;;;14.77;10.63;;;28.70;91.70;;;;;;5069331;28;20418;-58
2021/09/05 06:58:35;;;;;;;14.30;10.38;;;29.20;90.50;;;;;;5067676;28;20396;-57
2021/09/05 07:01:02;;;;;;;16.02;11.25;;;29.10;89.90;;;;;;5069597;28;20375;-58
2021/09/05 07:03:28;;;;;;;16.85;11.55;;;28.50;90.90;;;;;;5069455;28;20870;-58
2021/09/05 07:05:53;;;;;;;15.23;11.93;;;29.00;90.10;;;;;;5069188;28;20456;-58
2021/09/05 07:08:20;;;;;;;14.50;11.23;;;29.80;87.70;;;;;;5069428;28;20392;-59
2021/09/05 07:10:46;;;;;;;14.40;10.77;;;30.00;84.60;;;;;;5068503;28;20388;-56
2021/09/05 07:13:11;;;;;;;14.00;10.77;;;30.50;81.80;;;;;;5069932;28;20859;-56
2021/09/05 07:15:37;;;;;;;14.63;10.57;;;30.00;80.30;;;;;;5068794;28;21200;-56
2021/09/05 07:18:03;;;;;;;14.75;10.93;;;29.60;82.70;;;;;;5068964;28;20580;-56
2021/09/05 07:20:29;;;;;;;13.77;10.07;;;29.40;83.20;;;;;;5069015;28;20390;-57
2021/09/05 07:22:56;;;;;;;17.60;11.30;;;29.20;83.60;;;;;;5069055;28;20387;-55
2021/09/05 07:25:22;;;;;;;15.70;13.27;;;28.60;83.20;;;;;;5067846;28;20406;-57
2021/09/05 07:27:48;;;;;;;15.45;12.30;;;28.30;85.50;;;;;;5068830;28;20438;-55
2021/09/05 07:30:15;;;;;;;16.42;12.38;;;28.40;85.90;;;;;;5068888;28;20398;-56
2021/09/05 07:32:42;;;;;;;14.43;11.95;;;28.60;85.70;;;;;;5068693;28;20372;-55
2021/09/05 07:35:08;;;;;;;14.77;11.45;;;29.00;84.70;;;;;;5069625;28;20383;-56
2021/09/05 07:37:34;;;;;;;15.75;10.07;;;29.50;83.30;;;;;;5068087;28;20800;-56
2021/09/05 07:40:00;;;;;;;14.60;10.90;;;29.40;83.00;;;;;;5069570;28;20418;-56
2021/09/05 07:42:26;;;;;;;14.70;10.35;;;29.90;80.00;;;;;;5069250;28;20384;-59
2021/09/05 07:44:52;;;;;;;14.30;9.80;;;29.30;81.00;;;;;;5068079;28;20539;-59
2021/09/05 07:47:19;;;;;;;14.63;9.45;;;29.60;81.90;;;;;;5069371;28;20494;-60
2021/09/05 07:49:44;;;;;;;14.43;9.73;;;30.30;80.80;;;;;;5068299;28;20890;-59
2021/09/05 07:52:10;;;;;;;14.82;9.57;;;30.60;76.60;;;;;;5067304;28;20388;-61
2021/09/05 07:54:36;;;;;;;13.60;10.02;;;31.20;76.70;;;;;;5068660;28;20410;-60
2021/09/05 07:57:01;;;;;;;15.10;9.50;;;31.70;73.40;;;;;;5067919;28;20388;-60
2021/09/05 07:59:27;;;;;;;13.00;9.10;;;31.40;73.30;;;;;;5069017;28;20381;-60
2021/09/05 08:01:52;;;;;;;13.90;9.43;;;30.40;75.00;;;;;;5067994;28;20504;-60
2021/09/05 08:04:18;;;;;;;12.87;8.90;;;30.80;73.40;;;;;;5068868;28;20467;-61
2021/09/05 08:06:44;;;;;;;16.08;11.10;;;31.00;73.70;;;;;;5068386;28;20410;-60
2021/09/05 08:09:09;;;;;;;12.65;9.43;;;31.40;71.70;;;;;;5073184;28;20387;-58
2021/09/05 08:11:35;;;;;;;13.33;10.70;;;32.50;68.30;;;;;;5072052;28;20388;-58
2021/09/05 08:14:01;;;;;;;13.70;10.73;;;33.20;66.60;;;;;;5072618;28;20412;-58
2021/09/05 08:16:26;;;;;;;12.65;9.18;;;32.90;65.80;;;;;;5072364;28;20430;-59
2021/09/05 08:18:52;;;;;;;13.45;11.07;;;33.20;64.10;;;;;;5072268;28;20411;-58
2021/09/05 08:21:17;;;;;;;14.30;10.37;;;33.70;61.00;;;;;;5072467;28;20454;-58
2021/09/05 08:23:44;;;;;;;15.90;10.47;;;33.30;61.00;;;;;;5071830;28;20824;-60
2021/09/05 08:26:12;;;;;;;13.43;9.50;;;32.70;63.30;;;;;;5072625;28;20486;-58
2021/09/05 08:28:38;;;;;;;12.43;11.13;;;33.50;63.20;;;;;;5071723;28;20384;-58
2021/09/05 08:31:04;;;;;;;15.07;11.10;;;33.80;60.70;;;;;;5072820;28;20371;-59
2021/09/05 08:33:29;;;;;;;14.77;12.40;;;33.80;59.90;;;;;;5072604;28;20461;-60
2021/09/05 08:35:55;;;;;;;14.45;10.32;;;33.90;59.10;;;;;;5071527;28;20379;-60
2021/09/05 08:38:21;;;;;;;16.23;9.30;;;34.00;58.50;;;;;;5072074;28;20418;-60
2021/09/05 08:40:49;;;;;;;11.47;9.00;;;34.20;58.50;;;;;;5071956;28;20854;-61
2021/09/05 08:43:20;;;;;;;12.90;8.50;;;34.40;57.70;;;;;;5071943;28;21017;-60
2021/09/05 08:45:48;;;;;;;13.57;8.60;;;34.70;57.00;;;;;;5071522;28;20408;-60
2021/09/05 08:48:16;;;;;;;11.70;8.93;;;35.20;56.90;;;;;;5072533;28;20382;-60
2021/09/05 08:50:44;;;;;;;12.00;9.13;;;35.70;52.90;;;;;;5071057;28;20368;-60
2021/09/05 08:53:10;;;;;;;10.63;8.55;;;36.30;52.50;;;;;;5072026;28;20368;-60
2021/09/05 08:55:36;;;;;;;12.13;9.50;;;36.40;52.30;;;;;;5071580;28;20414;-60
2021/09/05 08:58:01;;;;;;;11.30;8.93;;;36.80;51.90;;;;;;5072297;28;20383;-61
2021/09/05 09:00:27;;;;;;;10.37;8.43;;;35.90;52.90;;;;;;5072440;28;20375;-61
2021/09/05 09:02:55;;;;;;;13.50;9.10;;;35.10;54.00;;;;;;5069874;28;21007;-62
2021/09/05 09:05:41;;;;;;;12.57;8.90;;;35.70;53.10;;;;;;5071919;28;20834;-61
2021/09/05 09:08:08;;;;;;;11.23;7.75;;;35.70;52.40;;;;;;5072099;28;20402;-61
2021/09/05 09:10:53;;;;;;;12.52;9.00;;;35.80;52.20;;;;;;5071220;28;20386;-61
2021/09/05 09:13:31;;;;;;;12.20;8.30;;;36.80;50.90;;;;;;5072081;28;20418;-62
2021/09/05 09:16:18;;;;;;;11.30;7.80;;;36.60;50.90;;;;;;5070914;28;20404;-60
2021/09/05 09:18:44;;;;;;;13.05;8.80;;;36.70;49.80;;;;;;5070048;28;20404;-60
2021/09/05 09:21:12;;;;;;;13.02;7.72;;;37.70;48.30;;;;;;5070587;28;20383;-60
2021/09/05 09:23:39;;;;;;;11.50;7.72;;;37.00;48.70;;;;;;5070589;28;20499;-60
2021/09/05 09:26:07;;;;;;;10.45;7.40;;;37.30;48.70;;;;;;5071705;28;20449;-60
2021/09/05 09:28:50;;;;;;;10.98;7.55;;;37.50;47.90;;;;;;5071042;28;20388;-60
2021/09/05 09:31:22;;;;;;;13.45;7.38;;;37.00;48.40;;;;;;5071769;28;20849;-60
2021/09/05 09:33:53;;;;;;;11.70;7.68;;;37.80;47.40;;;;;;5070303;28;20411;-60
2021/09/05 09:36:22;;;;;;;10.30;7.15;;;38.80;44.60;;;;;;5071247;28;20380;-60
2021/09/05 09:38:59;;;;;;;10.17;7.07;;;39.40;44.70;;;;;;5069972;28;20482;-60
2021/09/05 09:41:29;;;;;;;10.13;7.05;;;38.40;45.30;;;;;;5071544;28;20467;-61
2021/09/05 09:43:58;;;;;;;9.88;7.10;;;37.20;46.60;;;;;;5070490;28;20893;-61
2021/09/05 09:46:26;;;;;;;10.83;7.20;;;36.40;47.70;;;;;;5071046;28;20504;-62
2021/09/05 09:48:55;;;;;;;11.27;8.40;;;35.90;48.60;;;;;;5070259;28;20903;-61
2021/09/05 09:51:21;;;;;;;15.10;13.60;;;35.20;49.30;;;;;;5071216;28;20403;-61
2021/09/05 09:53:47;;;;;;;17.05;15.38;;;34.70;50.30;;;;;;5070126;28;20380;-61
2021/09/05 09:56:17;;;;;;;9.70;6.90;;;35.30;49.70;;;;;;5071042;28;20387;-61
2021/09/05 09:58:50;;;;;;;10.25;7.35;;;36.00;48.60;;;;;;5070252;28;20796;-61
2021/09/05 10:01:19;;;;;;;11.00;6.57;;;36.50;48.30;;;;;;5071058;28;20387;-61
2021/09/05 10:03:47;;;;;;;15.82;14.32;;;36.10;46.60;;;;;;5069819;28;21014;-60
2021/09/05 10:06:14;;;;;;;11.87;10.40;;;34.90;48.10;;;;;;5070716;28;20896;-61
2021/09/05 10:08:41;;;;;;;13.43;10.87;;;34.80;48.70;;;;;;5069115;28;20923;-60
2021/09/05 10:11:09;;;;;;;12.00;10.53;;;35.50;48.20;;;;;;5070418;28;20380;-61
2021/09/05 10:13:38;;;;;;;13.82;12.52;;;35.80;49.30;;;;;;5070454;28;20386;-61
2021/09/05 10:16:04;;;;;;;12.77;11.48;;;36.30;48.10;;;;;;5070965;28;20396;-61
2021/09/05 10:18:33;;;;;;;13.18;11.88;;;36.40;47.40;;;;;;5070222;28;20400;-62
2021/09/05 10:21:00;;;;;;;10.85;9.75;;;35.50;48.60;;;;;;5069614;28;20856;-60
2021/09/05 10:23:30;;;;;;;10.60;9.50;;;35.80;46.20;;;;;;5070539;28;20780;-61
2021/09/05 10:25:56;;;;;;;10.50;9.43;;;36.30;45.90;;;;;;5069692;28;20857;-61
2021/09/05 10:28:40;;;;;;;10.30;9.20;;;36.30;45.80;;;;;;5070511;28;20412;-61
2021/09/05 10:31:07;;;;;;;10.80;9.30;;;36.80;45.20;;;;;;5069648;28;20437;-61
2021/09/05 10:33:44;;;;;;;10.10;7.35;;;36.60;45.70;;;;;;5070517;28;20379;-61
2021/09/05 10:36:14;;;;;;;9.60;6.43;;;36.00;45.70;;;;;;5070106;28;20920;-61
2021/09/05 10:38:42;;;;;;;10.80;9.13;;;35.80;45.90;;;;;;5069355;28;20378;-60
2021/09/05 10:41:21;;;;;;;12.20;11.00;;;35.20;46.10;;;;;;5070216;28;20379;-56
2021/09/05 10:43:49;;;;;;;12.77;10.68;;;34.00;47.60;;;;;;5068938;28;20368;-58
2021/09/05 10:46:30;;;;;;;11.23;10.05;;;33.00;50.20;;;;;;5070060;28;20415;-58
2021/09/05 10:49:00;;;;;;;12.60;11.40;;;32.40;48.40;;;;;;5069301;28;20396;-62
2021/09/05 10:51:39;;;;;;;12.23;11.02;;;32.00;49.00;;;;;;5070171;28;20380;-57
2021/09/05 10:54:08;;;;;;;14.65;13.25;;;32.10;49.10;;;;;;5070160;28;20446;-58
2021/09/05 10:56:52;;;;;;;9.50;5.35;;;31.70;51.50;;;;;;5069069;28;20433;-58
2021/09/05 10:59:21;;;;;;;8.75;5.10;;;31.90;50.90;;;;;;5067765;28;20907;-62
2021/09/05 11:01:47;;;;;;;8.43;4.68;;;32.10;50.20;;;;;;5068051;28;20691;-58
2021/09/05 11:04:15;;;;;;;10.40;5.60;;;32.20;50.00;;;;;;5069418;28;20414;-58
2021/09/05 11:06:51;;;;;;;9.60;4.80;;;32.70;48.50;;;;;;5068703;28;20502;-57
2021/09/05 11:12:04;;;;;;;9.48;4.53;;;33.60;45.50;;;;;;5068699;28;20540;-56
2021/09/05 11:14:40;;;;;;;9.25;5.00;;;33.80;44.70;;;;;;5069550;28;20449;-56
2021/09/05 11:17:17;;;;;;;9.80;5.20;;;33.50;45.20;;;;;;5069100;28;20497;-56
2021/09/05 11:19:52;;;;;;;8.43;4.70;;;33.20;45.90;;;;;;5068748;28;20396;-56
2021/09/05 11:22:32;;;;;;;9.60;4.70;;;33.20;44.60;;;;;;5069390;28;20836;-57
2021/09/05 11:25:28;;;;;;;9.60;4.28;;;32.60;44.10;;;;;;5068406;28;20375;-58
2021/09/05 11:28:10;;;;;;;10.05;4.35;;;31.90;45.00;;;;;;5063621;28;20476;-57
2021/09/05 11:30:38;;;;;;;8.63;4.70;;;31.60;45.20;;;;;;5069110;28;20395;-57
2021/09/05 11:33:09;;;;;;;9.57;5.20;;;30.90;46.60;;;;;;5069507;28;20391;-57
2021/09/05 11:35:45;;;;;;;8.25;4.53;;;30.30;47.40;;;;;;5069014;28;20403;-57
2021/09/05 11:38:13;;;;;;;8.38;4.90;;;30.00;49.60;;;;;;5068982;28;20391;-57
2021/09/05 11:40:42;;;;;;;8.73;4.53;;;29.70;49.40;;;;;;5068598;28;20387;-57
2021/09/05 11:43:07;;;;;;;11.93;10.80;;;29.80;50.40;;;;;;5068910;28;20376;-57
2021/09/05 11:45:38;;;;;;;8.40;4.80;;;29.90;50.20;;;;;;5068828;28;20411;-57
2021/09/05 11:48:06;;;;;;;8.10;5.10;;;29.50;50.20;;;;;;5069262;28;20391;-57
2021/09/05 11:50:37;;;;;;;9.93;7.72;;;29.40;51.70;;;;;;5067280;28;20414;-57
2021/09/05 11:53:05;;;;;;;9.48;4.40;;;29.50;50.80;;;;;;5068830;28;20406;-57
2021/09/05 11:55:31;;;;;;;8.77;4.55;;;29.60;50.40;;;;;;5068930;28;20385;-57
2021/09/05 11:58:04;;;;;;;7.93;4.60;;;29.80;48.00;;;;;;5067922;28;20513;-57
2021/09/05 12:00:40;;;;;;;8.70;5.00;;;29.70;48.50;;;;;;5068700;28;20391;-57
2021/09/05 12:03:08;;;;;;;8.70;5.00;;;30.10;48.20;;;;;;5069385;28;20380;-57
2021/09/05 12:05:35;;;;;;;8.20;4.97;;;30.10;49.70;;;;;;5068787;28;20396;-57
2021/09/05 12:08:03;;;;;;;8.48;4.40;;;30.20;50.40;;;;;;5068016;28;20391;-58
2021/09/05 12:10:31;;;;;;;7.85;4.70;;;30.50;49.80;;;;;;5068700;28;20364;-57
2021/09/05 12:12:58;;;;;;;8.53;4.40;;;30.30;48.40;;;;;;5068289;28;20391;-58
2021/09/05 12:15:23;;;;;;;8.30;5.15;;;30.20;47.80;;;;;;5068559;28;20396;-57
2021/09/05 12:17:51;;;;;;;7.82;4.60;;;29.70;48.60;;;;;;5067494;28;20411;-57
2021/09/05 12:20:18;;;;;;;10.10;5.20;;;29.70;50.20;;;;;;5068471;28;20376;-57
2021/09/05 12:22:53;;;;;;;8.52;4.30;;;29.70;49.30;;;;;;5067455;28;20375;-57
2021/09/05 12:25:26;;;;;;;9.25;4.30;;;29.70;50.00;;;;;;5068507;28;20466;-57
2021/09/05 12:28:06;;;;;;;7.88;4.60;;;29.90;49.70;;;;;;5067789;28;20432;-57
2021/09/05 12:30:47;;;;;;;8.10;4.70;;;30.00;49.70;;;;;;5068477;28;20434;-60
2021/09/05 12:33:18;;;;;;;9.15;4.90;;;30.20;49.00;;;;;;5068736;28;20395;-56
2021/09/05 12:35:51;;;;;;;9.98;4.78;;;30.00;50.00;;;;;;5066385;28;20395;-57
2021/09/05 12:38:32;;;;;;;8.80;4.40;;;30.10;49.70;;;;;;5068382;28;20853;-57